sensor_id;sensor_type;location;lat;lon;timestamp;P1;durP1;ratioP1;P2;durP2;ratioP2
16387;SDS011;8303;53.446;9.988;2023-05-10T04:50:17;378.23;;;358.90;;
16387;SDS011;8303;53.446;9.988;2023-05-10T04:52:44;338.53;;;321.20;;
16387;SDS011;8303;53.446;9.988;2023-05-10T04:55:11;341.03;;;323.50;;
16387;SDS011;8303;53.446;9.988;2023-05-10T04:57:38;373.53;;;354.77;;
16387;SDS011;8303;53.446;9.988;2023-05-10T05:00:06;360.20;;;341.73;;
16387;SDS011;8303;53.446;9.988;2023-05-10T05:02:33;353.73;;;335.57;;
16387;SDS011;8303;53.446;9.988;2023-05-10T05:05:00;351.60;;;333.27;;
16387;SDS011;8303;53.446;9.988;2023-05-10T05:07:29;398.33;;;377.50;;
16387;SDS011;8303;53.446;9.988;2023-05-10T05:09:56;377.57;;;358.13;;
16387;SDS011;8303;53.446;9.988;2023-05-10T05:12:22;386.90;;;366.80;;
16387;SDS011;8303;53.446;9.988;2023-05-10T05:14:49;355.30;;;337.13;;
16387;SDS011;8303;53.446;9.988;2023-05-10T05:17:16;367.97;;;348.87;;
16387;SDS011;8303;53.446;9.988;2023-05-10T05:19:43;354.63;;;336.40;;
16387;SDS011;8303;53.446;9.988;2023-05-10T05:22:10;355.20;;;336.80;;
16387;SDS011;8303;53.446;9.988;2023-05-10T05:24:38;387.77;;;367.87;;
16387;SDS011;8303;53.446;9.988;2023-05-10T05:27:05;351.63;;;333.20;;
16387;SDS011;8303;53.446;9.988;2023-05-10T05:29:32;369.50;;;350.53;;
16387;SDS011;8303;53.446;9.988;2023-05-10T05:31:59;412.67;;;388.87;;
16387;SDS011;8303;53.446;9.988;2023-05-10T05:34:27;370.70;;;351.47;;
16387;SDS011;8303;53.446;9.988;2023-05-10T05:36:54;370.97;;;351.73;;
16387;SDS011;8303;53.446;9.988;2023-05-10T05:39:21;379.07;;;359.30;;
16387;SDS011;8303;53.446;9.988;2023-05-10T05:41:49;346.60;;;328.67;;
16387;SDS011;8303;53.446;9.988;2023-05-10T05:44:16;277.70;;;263.63;;
16387;SDS011;8303;53.446;9.988;2023-05-10T05:46:43;275.73;;;261.30;;
16387;SDS011;8303;53.446;9.988;2023-05-10T05:49:12;283.57;;;269.13;;
16387;SDS011;8303;53.446;9.988;2023-05-10T05:51:44;313.93;;;297.47;;
16387;SDS011;8303;53.446;9.988;2023-05-10T05:54:12;288.30;;;273.57;;
16387;SDS011;8303;53.446;9.988;2023-05-10T05:56:39;275.37;;;261.07;;
16387;SDS011;8303;53.446;9.988;2023-05-10T05:59:08;274.83;;;260.67;;
16387;SDS011;8303;53.446;9.988;2023-05-10T06:01:35;258.00;;;245.10;;
16387;SDS011;8303;53.446;9.988;2023-05-10T06:04:02;256.07;;;243.17;;
16387;SDS011;8303;53.446;9.988;2023-05-10T06:06:28;301.23;;;285.87;;
16387;SDS011;8303;53.446;9.988;2023-05-10T06:08:57;156.13;;;147.67;;
16387;SDS011;8303;53.446;9.988;2023-05-10T06:11:24;163.17;;;154.77;;
16387;SDS011;8303;53.446;9.988;2023-05-10T06:13:52;143.60;;;136.10;;
16387;SDS011;8303;53.446;9.988;2023-05-10T06:16:20;105.40;;;99.77;;
16387;SDS011;8303;53.446;9.988;2023-05-10T06:18:47;132.13;;;125.13;;
16387;SDS011;8303;53.446;9.988;2023-05-10T06:21:14;112.37;;;106.17;;
16387;SDS011;8303;53.446;9.988;2023-05-10T06:23:41;100.97;;;95.50;;
16387;SDS011;8303;53.446;9.988;2023-05-10T06:26:08;105.50;;;99.93;;
16387;SDS011;8303;53.446;9.988;2023-05-10T06:28:35;98.87;;;93.13;;
16387;SDS011;8303;53.446;9.988;2023-05-10T06:31:03;106.43;;;100.67;;
16387;SDS011;8303;53.446;9.988;2023-05-10T06:33:31;127.53;;;120.93;;
16387;SDS011;8303;53.446;9.988;2023-05-10T06:35:58;77.03;;;72.67;;
16387;SDS011;8303;53.446;9.988;2023-05-10T06:38:25;77.33;;;73.17;;
16387;SDS011;8303;53.446;9.988;2023-05-10T06:40:52;73.53;;;69.50;;
16387;SDS011;8303;53.446;9.988;2023-05-10T06:43:19;60.50;;;56.83;;
16387;SDS011;8303;53.446;9.988;2023-05-10T06:45:47;75.30;;;71.13;;
16387;SDS011;8303;53.446;9.988;2023-05-10T06:48:14;123.17;;;116.57;;
16387;SDS011;8303;53.446;9.988;2023-05-10T06:50:42;101.27;;;95.80;;
16387;SDS011;8303;53.446;9.988;2023-05-10T06:53:09;64.60;;;61.10;;
16387;SDS011;8303;53.446;9.988;2023-05-10T06:55:36;40.80;;;38.40;;
16387;SDS011;8303;53.446;9.988;2023-05-10T06:58:03;38.27;;;36.07;;
16387;SDS011;8303;53.446;9.988;2023-05-10T07:00:31;33.63;;;31.70;;
16387;SDS011;8303;53.446;9.988;2023-05-10T07:02:58;28.33;;;26.63;;
16387;SDS011;8303;53.446;9.988;2023-05-10T07:05:25;30.58;;;28.48;;
16387;SDS011;8303;53.446;9.988;2023-05-10T07:07:54;27.30;;;25.60;;
16387;SDS011;8303;53.446;9.988;2023-05-10T07:10:21;30.25;;;28.45;;
16387;SDS011;8303;53.446;9.988;2023-05-10T07:12:47;32.25;;;30.23;;
16387;SDS011;8303;53.446;9.988;2023-05-10T07:15:15;30.40;;;28.33;;
16387;SDS011;8303;53.446;9.988;2023-05-10T07:17:42;30.48;;;28.58;;
16387;SDS011;8303;53.446;9.988;2023-05-10T07:20:09;27.52;;;25.73;;
16387;SDS011;8303;53.446;9.988;2023-05-10T07:22:36;26.60;;;24.80;;
16387;SDS011;8303;53.446;9.988;2023-05-10T07:25:05;25.15;;;23.55;;
16387;SDS011;8303;53.446;9.988;2023-05-10T07:27:33;25.55;;;24.05;;
16387;SDS011;8303;53.446;9.988;2023-05-10T07:29:59;32.10;;;30.10;;
16387;SDS011;8303;53.446;9.988;2023-05-10T07:32:26;29.27;;;27.48;;
16387;SDS011;8303;53.446;9.988;2023-05-10T07:34:53;28.98;;;26.98;;
16387;SDS011;8303;53.446;9.988;2023-05-10T07:37:20;27.30;;;25.52;;
16387;SDS011;8303;53.446;9.988;2023-05-10T07:39:47;30.80;;;28.92;;
16387;SDS011;8303;53.446;9.988;2023-05-10T07:42:15;27.90;;;26.17;;
16387;SDS011;8303;53.446;9.988;2023-05-10T07:44:42;28.65;;;26.85;;
16387;SDS011;8303;53.446;9.988;2023-05-10T07:47:09;28.88;;;27.15;;
16387;SDS011;8303;53.446;9.988;2023-05-10T07:49:36;30.23;;;28.33;;
16387;SDS011;8303;53.446;9.988;2023-05-10T07:52:03;30.92;;;28.92;;
16387;SDS011;8303;53.446;9.988;2023-05-10T07:54:30;30.05;;;27.70;;
16387;SDS011;8303;53.446;9.988;2023-05-10T07:56:59;28.05;;;26.20;;
16387;SDS011;8303;53.446;9.988;2023-05-10T07:59:27;26.70;;;24.90;;
16387;SDS011;8303;53.446;9.988;2023-05-10T08:01:54;31.17;;;29.38;;
16387;SDS011;8303;53.446;9.988;2023-05-10T08:04:21;30.90;;;28.92;;
16387;SDS011;8303;53.446;9.988;2023-05-10T08:06:48;35.92;;;33.33;;
16387;SDS011;8303;53.446;9.988;2023-05-10T08:09:15;29.88;;;27.45;;
16387;SDS011;8303;53.446;9.988;2023-05-10T08:11:42;30.95;;;28.95;;
16387;SDS011;8303;53.446;9.988;2023-05-10T08:14:09;57.03;;;53.25;;
16387;SDS011;8303;53.446;9.988;2023-05-10T08:16:37;27.40;;;25.65;;
16387;SDS011;8303;53.446;9.988;2023-05-10T08:19:04;28.40;;;26.55;;
16387;SDS011;8303;53.446;9.988;2023-05-10T08:21:31;25.73;;;24.10;;
16387;SDS011;8303;53.446;9.988;2023-05-10T08:23:58;26.38;;;24.77;;
16387;SDS011;8303;53.446;9.988;2023-05-10T08:26:25;28.52;;;26.63;;
16387;SDS011;8303;53.446;9.988;2023-05-10T08:28:52;26.45;;;24.77;;
16387;SDS011;8303;53.446;9.988;2023-05-10T08:31:19;29.98;;;27.98;;
16387;SDS011;8303;53.446;9.988;2023-05-10T08:33:47;45.85;;;43.05;;
16387;SDS011;8303;53.446;9.988;2023-05-10T08:36:16;54.33;;;51.08;;
16387;SDS011;8303;53.446;9.988;2023-05-10T08:38:46;129.50;;;122.63;;
16387;SDS011;8303;53.446;9.988;2023-05-10T08:41:13;80.95;;;76.60;;
16387;SDS011;8303;53.446;9.988;2023-05-10T08:43:40;88.20;;;83.50;;
16387;SDS011;8303;53.446;9.988;2023-05-10T08:46:11;40.70;;;38.20;;
16387;SDS011;8303;53.446;9.988;2023-05-10T08:48:41;31.63;;;29.70;;
16387;SDS011;8303;53.446;9.988;2023-05-10T08:51:10;62.63;;;58.78;;
16387;SDS011;8303;53.446;9.988;2023-05-10T08:53:41;55.13;;;52.05;;
16387;SDS011;8303;53.446;9.988;2023-05-10T08:56:08;38.10;;;35.22;;
16387;SDS011;8303;53.446;9.988;2023-05-10T08:58:35;32.50;;;30.60;;
16387;SDS011;8303;53.446;9.988;2023-05-10T09:01:03;52.22;;;49.17;;
16387;SDS011;8303;53.446;9.988;2023-05-10T09:03:31;139.75;;;132.52;;
16387;SDS011;8303;53.446;9.988;2023-05-10T09:05:58;176.50;;;167.35;;
16387;SDS011;8303;53.446;9.988;2023-05-10T09:08:26;151.85;;;144.05;;
16387;SDS011;8303;53.446;9.988;2023-05-10T09:10:54;150.23;;;142.27;;
16387;SDS011;8303;53.446;9.988;2023-05-10T09:13:22;168.68;;;159.90;;
16387;SDS011;8303;53.446;9.988;2023-05-10T09:15:50;188.27;;;178.60;;
16387;SDS011;8303;53.446;9.988;2023-05-10T09:18:17;284.50;;;269.48;;
16387;SDS011;8303;53.446;9.988;2023-05-10T09:20:44;290.58;;;275.80;;
16387;SDS011;8303;53.446;9.988;2023-05-10T09:23:11;398.42;;;377.45;;
16387;SDS011;8303;53.446;9.988;2023-05-10T09:25:40;405.58;;;384.27;;
16387;SDS011;8303;53.446;9.988;2023-05-10T09:28:08;511.77;;;483.92;;
16387;SDS011;8303;53.446;9.988;2023-05-10T09:30:35;421.00;;;398.90;;
16387;SDS011;8303;53.446;9.988;2023-05-10T09:33:02;440.88;;;417.85;;
16387;SDS011;8303;53.446;9.988;2023-05-10T09:35:30;503.35;;;475.73;;
16387;SDS011;8303;53.446;9.988;2023-05-10T09:37:59;500.60;;;472.90;;
16387;SDS011;8303;53.446;9.988;2023-05-10T09:40:27;505.77;;;478.20;;
16387;SDS011;8303;53.446;9.988;2023-05-10T09:42:56;428.83;;;406.05;;
16387;SDS011;8303;53.446;9.988;2023-05-10T09:45:27;542.90;;;512.67;;
16387;SDS011;8303;53.446;9.988;2023-05-10T09:47:56;538.20;;;508.73;;
16387;SDS011;8303;53.446;9.988;2023-05-10T09:50:24;510.02;;;481.98;;
16387;SDS011;8303;53.446;9.988;2023-05-10T09:52:52;475.33;;;450.03;;
16387;SDS011;8303;53.446;9.988;2023-05-10T09:55:20;432.27;;;409.47;;
16387;SDS011;8303;53.446;9.988;2023-05-10T09:57:49;431.60;;;409.30;;
16387;SDS011;8303;53.446;9.988;2023-05-10T10:00:27;416.87;;;395.03;;
16387;SDS011;8303;53.446;9.988;2023-05-10T10:02:55;441.70;;;418.37;;
16387;SDS011;8303;53.446;9.988;2023-05-10T10:05:27;428.40;;;405.63;;
16387;SDS011;8303;53.446;9.988;2023-05-10T10:07:55;461.80;;;437.30;;
16387;SDS011;8303;53.446;9.988;2023-05-10T10:10:23;456.90;;;432.93;;
16387;SDS011;8303;53.446;9.988;2023-05-10T10:12:50;491.90;;;465.57;;
16387;SDS011;8303;53.446;9.988;2023-05-10T10:15:17;489.97;;;464.40;;
16387;SDS011;8303;53.446;9.988;2023-05-10T10:17:46;475.87;;;450.57;;
16387;SDS011;8303;53.446;9.988;2023-05-10T10:20:14;496.07;;;469.57;;
16387;SDS011;8303;53.446;9.988;2023-05-10T10:22:41;498.00;;;471.10;;
16387;SDS011;8303;53.446;9.988;2023-05-10T10:25:10;496.70;;;469.90;;
16387;SDS011;8303;53.446;9.988;2023-05-10T10:27:42;492.53;;;465.80;;
16387;SDS011;8303;53.446;9.988;2023-05-10T10:30:17;516.60;;;488.20;;
16387;SDS011;8303;53.446;9.988;2023-05-10T10:32:59;499.27;;;472.37;;
16387;SDS011;8303;53.446;9.988;2023-05-10T10:35:36;464.17;;;439.13;;
16387;SDS011;8303;53.446;9.988;2023-05-10T10:38:03;449.63;;;425.40;;
16387;SDS011;8303;53.446;9.988;2023-05-10T10:40:33;529.97;;;500.20;;
16387;SDS011;8303;53.446;9.988;2023-05-10T10:46:09;479.50;;;453.53;;
16387;SDS011;8303;53.446;9.988;2023-05-10T10:48:39;465.40;;;440.50;;
16387;SDS011;8303;53.446;9.988;2023-05-10T10:51:06;471.87;;;445.70;;
16387;SDS011;8303;53.446;9.988;2023-05-10T10:53:33;511.47;;;483.33;;
16387;SDS011;8303;53.446;9.988;2023-05-10T10:56:07;470.90;;;445.67;;
16387;SDS011;8303;53.446;9.988;2023-05-10T10:58:35;473.70;;;448.27;;
16387;SDS011;8303;53.446;9.988;2023-05-10T11:01:09;462.23;;;437.07;;
16387;SDS011;8303;53.446;9.988;2023-05-10T11:03:39;468.85;;;443.20;;
16387;SDS011;8303;53.446;9.988;2023-05-10T11:06:06;433.77;;;410.58;;
16387;SDS011;8303;53.446;9.988;2023-05-10T11:08:34;500.48;;;473.85;;
16387;SDS011;8303;53.446;9.988;2023-05-10T11:11:09;469.90;;;444.77;;
16387;SDS011;8303;53.446;9.988;2023-05-10T11:13:40;453.42;;;429.10;;
16387;SDS011;8303;53.446;9.988;2023-05-10T11:16:15;449.95;;;425.60;;
16387;SDS011;8303;53.446;9.988;2023-05-10T11:18:55;499.20;;;471.40;;
16387;SDS011;8303;53.446;9.988;2023-05-10T11:21:24;432.98;;;410.15;;
16387;SDS011;8303;53.446;9.988;2023-05-10T11:23:54;428.17;;;405.67;;
16387;SDS011;8303;53.446;9.988;2023-05-10T11:26:22;412.55;;;391.08;;
16387;SDS011;8303;53.446;9.988;2023-05-10T11:28:50;391.27;;;370.65;;
16387;SDS011;8303;53.446;9.988;2023-05-10T11:31:19;410.65;;;389.00;;
16387;SDS011;8303;53.446;9.988;2023-05-10T11:33:47;381.77;;;361.73;;
16387;SDS011;8303;53.446;9.988;2023-05-10T11:36:17;376.67;;;357.05;;
16387;SDS011;8303;53.446;9.988;2023-05-10T11:38:45;410.40;;;388.10;;
16387;SDS011;8303;53.446;9.988;2023-05-10T11:41:12;402.42;;;380.65;;
16387;SDS011;8303;53.446;9.988;2023-05-10T11:43:40;395.50;;;374.77;;
16387;SDS011;8303;53.446;9.988;2023-05-10T11:46:07;387.58;;;367.02;;
16387;SDS011;8303;53.446;9.988;2023-05-10T11:48:36;396.25;;;375.35;;
16387;SDS011;8303;53.446;9.988;2023-05-10T11:51:04;388.40;;;368.10;;
16387;SDS011;8303;53.446;9.988;2023-05-10T11:53:33;397.55;;;376.90;;
16387;SDS011;8303;53.446;9.988;2023-05-10T11:56:03;397.88;;;377.30;;
16387;SDS011;8303;53.446;9.988;2023-05-10T11:58:31;401.70;;;380.73;;
16387;SDS011;8303;53.446;9.988;2023-05-10T12:00:58;385.48;;;365.60;;
16387;SDS011;8303;53.446;9.988;2023-05-10T12:03:26;386.58;;;366.42;;
16387;SDS011;8303;53.446;9.988;2023-05-10T12:05:54;396.90;;;376.33;;
16387;SDS011;8303;53.446;9.988;2023-05-10T12:08:22;350.70;;;332.42;;
16387;SDS011;8303;53.446;9.988;2023-05-10T12:10:51;355.92;;;337.27;;
16387;SDS011;8303;53.446;9.988;2023-05-10T12:13:20;345.65;;;328.02;;
16387;SDS011;8303;53.446;9.988;2023-05-10T12:15:47;353.85;;;335.92;;
16387;SDS011;8303;53.446;9.988;2023-05-10T12:18:14;374.23;;;355.17;;
16387;SDS011;8303;53.446;9.988;2023-05-10T12:20:41;394.98;;;374.88;;
16387;SDS011;8303;53.446;9.988;2023-05-10T12:23:09;347.23;;;329.45;;
16387;SDS011;8303;53.446;9.988;2023-05-10T12:25:36;354.80;;;336.73;;
16387;SDS011;8303;53.446;9.988;2023-05-10T12:28:06;346.52;;;328.90;;
16387;SDS011;8303;53.446;9.988;2023-05-10T12:30:35;363.30;;;344.77;;
16387;SDS011;8303;53.446;9.988;2023-05-10T12:33:07;338.88;;;321.65;;
16387;SDS011;8303;53.446;9.988;2023-05-10T12:35:43;367.83;;;348.70;;
16387;SDS011;8303;53.446;9.988;2023-05-10T12:38:24;380.58;;;360.90;;
16387;SDS011;8303;53.446;9.988;2023-05-10T12:40:54;364.40;;;345.92;;
16387;SDS011;8303;53.446;9.988;2023-05-10T12:43:22;368.67;;;350.13;;
16387;SDS011;8303;53.446;9.988;2023-05-10T12:45:49;382.70;;;363.00;;
16387;SDS011;8303;53.446;9.988;2023-05-10T12:48:16;369.55;;;350.65;;
16387;SDS011;8303;53.446;9.988;2023-05-10T12:50:43;359.73;;;341.23;;
16387;SDS011;8303;53.446;9.988;2023-05-10T12:53:10;418.85;;;397.17;;
16387;SDS011;8303;53.446;9.988;2023-05-10T12:55:38;406.83;;;385.30;;
16387;SDS011;8303;53.446;9.988;2023-05-10T12:58:05;360.05;;;341.48;;
16387;SDS011;8303;53.446;9.988;2023-05-10T13:00:33;381.02;;;361.55;;
16387;SDS011;8303;53.446;9.988;2023-05-10T13:03:00;371.77;;;352.73;;
16387;SDS011;8303;53.446;9.988;2023-05-10T13:05:27;351.20;;;333.20;;
16387;SDS011;8303;53.446;9.988;2023-05-10T13:07:54;373.58;;;354.52;;
16387;SDS011;8303;53.446;9.988;2023-05-10T13:10:21;362.80;;;344.20;;
16387;SDS011;8303;53.446;9.988;2023-05-10T13:12:48;356.15;;;337.65;;
16387;SDS011;8303;53.446;9.988;2023-05-10T13:15:15;360.75;;;342.27;;
16387;SDS011;8303;53.446;9.988;2023-05-10T13:17:44;350.50;;;332.35;;
16387;SDS011;8303;53.446;9.988;2023-05-10T13:20:11;350.70;;;332.83;;
16387;SDS011;8303;53.446;9.988;2023-05-10T13:22:38;357.35;;;339.02;;
16387;SDS011;8303;53.446;9.988;2023-05-10T13:25:05;352.08;;;334.17;;
16387;SDS011;8303;53.446;9.988;2023-05-10T13:27:32;369.23;;;350.08;;
16387;SDS011;8303;53.446;9.988;2023-05-10T13:29:59;366.33;;;347.55;;
16387;SDS011;8303;53.446;9.988;2023-05-10T13:32:29;368.52;;;349.70;;
16387;SDS011;8303;53.446;9.988;2023-05-10T13:34:58;364.52;;;346.05;;
16387;SDS011;8303;53.446;9.988;2023-05-10T13:37:25;398.38;;;377.67;;
16387;SDS011;8303;53.446;9.988;2023-05-10T13:39:52;366.48;;;347.38;;
16387;SDS011;8303;53.446;9.988;2023-05-10T13:42:19;382.15;;;362.40;;
16387;SDS011;8303;53.446;9.988;2023-05-10T13:44:46;389.65;;;369.55;;
16387;SDS011;8303;53.446;9.988;2023-05-10T13:47:13;406.65;;;385.17;;
16387;SDS011;8303;53.446;9.988;2023-05-10T13:49:40;429.42;;;406.85;;
16387;SDS011;8303;53.446;9.988;2023-05-10T13:52:09;433.20;;;410.52;;
16387;SDS011;8303;53.446;9.988;2023-05-10T13:54:37;537.40;;;507.33;;
16387;SDS011;8303;53.446;9.988;2023-05-10T13:57:04;578.78;;;545.70;;
16387;SDS011;8303;53.446;9.988;2023-05-10T13:59:31;540.33;;;510.63;;
16387;SDS011;8303;53.446;9.988;2023-05-10T14:01:59;581.45;;;548.25;;
16387;SDS011;8303;53.446;9.988;2023-05-10T14:04:27;496.42;;;469.73;;
16387;SDS011;8303;53.446;9.988;2023-05-10T14:06:54;490.83;;;464.08;;
16387;SDS011;8303;53.446;9.988;2023-05-10T14:09:22;465.90;;;441.20;;
16387;SDS011;8303;53.446;9.988;2023-05-10T14:11:49;472.42;;;446.98;;
16387;SDS011;8303;53.446;9.988;2023-05-10T14:14:16;515.35;;;487.35;;
16387;SDS011;8303;53.446;9.988;2023-05-10T14:16:43;491.42;;;464.45;;
16387;SDS011;8303;53.446;9.988;2023-05-10T14:19:11;537.15;;;507.92;;
16387;SDS011;8303;53.446;9.988;2023-05-10T14:21:38;489.52;;;463.17;;
16387;SDS011;8303;53.446;9.988;2023-05-10T14:24:05;547.78;;;518.13;;
16387;SDS011;8303;53.446;9.988;2023-05-10T14:26:34;485.70;;;459.65;;
16387;SDS011;8303;53.446;9.988;2023-05-10T14:29:01;473.45;;;447.95;;
16387;SDS011;8303;53.446;9.988;2023-05-10T14:31:28;457.83;;;433.45;;
16387;SDS011;8303;53.446;9.988;2023-05-10T14:33:55;516.65;;;489.23;;
16387;SDS011;8303;53.446;9.988;2023-05-10T14:36:22;517.78;;;489.58;;
16387;SDS011;8303;53.446;9.988;2023-05-10T14:38:49;529.83;;;501.08;;
16387;SDS011;8303;53.446;9.988;2023-05-10T14:41:17;489.27;;;463.25;;
16387;SDS011;8303;53.446;9.988;2023-05-10T14:43:45;529.25;;;500.45;;
16387;SDS011;8303;53.446;9.988;2023-05-10T14:46:12;539.67;;;509.60;;
16387;SDS011;8303;53.446;9.988;2023-05-10T14:48:39;595.17;;;560.92;;
16387;SDS011;8303;53.446;9.988;2023-05-10T14:51:05;605.95;;;571.17;;
16387;SDS011;8303;53.446;9.988;2023-05-10T14:53:32;579.58;;;547.40;;
16387;SDS011;8303;53.446;9.988;2023-05-10T14:55:59;569.47;;;537.83;;
16387;SDS011;8303;53.446;9.988;2023-05-10T14:58:27;555.20;;;524.38;;
16387;SDS011;8303;53.446;9.988;2023-05-10T15:00:56;489.15;;;462.55;;
16387;SDS011;8303;53.446;9.988;2023-05-10T15:03:23;556.88;;;526.05;;
16387;SDS011;8303;53.446;9.988;2023-05-10T15:05:50;545.30;;;515.58;;
16387;SDS011;8303;53.446;9.988;2023-05-10T15:08:18;581.65;;;548.70;;
16387;SDS011;8303;53.446;9.988;2023-05-10T15:10:44;517.13;;;489.00;;
16387;SDS011;8303;53.446;9.988;2023-05-10T15:13:12;514.25;;;486.30;;
16387;SDS011;8303;53.446;9.988;2023-05-10T15:15:39;503.77;;;477.20;;
16387;SDS011;8303;53.446;9.988;2023-05-10T15:18:07;459.90;;;435.45;;
16387;SDS011;8303;53.446;9.988;2023-05-10T15:20:35;414.90;;;393.27;;
16387;SDS011;8303;53.446;9.988;2023-05-10T15:23:01;417.23;;;395.30;;
16387;SDS011;8303;53.446;9.988;2023-05-10T15:25:29;425.40;;;403.40;;
16387;SDS011;8303;53.446;9.988;2023-05-10T15:27:56;382.13;;;362.40;;
16387;SDS011;8303;53.446;9.988;2023-05-10T15:30:23;400.27;;;379.75;;
16387;SDS011;8303;53.446;9.988;2023-05-10T15:32:49;368.02;;;349.45;;
16387;SDS011;8303;53.446;9.988;2023-05-10T15:35:18;370.27;;;351.27;;
16387;SDS011;8303;53.446;9.988;2023-05-10T15:37:46;361.08;;;342.80;;
16387;SDS011;8303;53.446;9.988;2023-05-10T15:40:14;375.85;;;356.75;;
16387;SDS011;8303;53.446;9.988;2023-05-10T15:42:41;382.45;;;362.55;;
16387;SDS011;8303;53.446;9.988;2023-05-10T15:45:08;384.30;;;364.52;;
16387;SDS011;8303;53.446;9.988;2023-05-10T15:47:36;381.40;;;360.98;;
16387;SDS011;8303;53.446;9.988;2023-05-10T15:50:05;355.50;;;337.20;;
16387;SDS011;8303;53.446;9.988;2023-05-10T15:52:34;353.67;;;335.40;;
16387;SDS011;8303;53.446;9.988;2023-05-10T15:55:01;331.73;;;314.38;;
16387;SDS011;8303;53.446;9.988;2023-05-10T15:57:28;320.35;;;303.00;;
16387;SDS011;8303;53.446;9.988;2023-05-10T15:59:55;196.93;;;186.63;;
16387;SDS011;8303;53.446;9.988;2023-05-10T16:02:23;215.30;;;203.95;;
16387;SDS011;8303;53.446;9.988;2023-05-10T16:04:49;161.07;;;152.63;;
16387;SDS011;8303;53.446;9.988;2023-05-10T16:07:16;146.60;;;138.90;;
16387;SDS011;8303;53.446;9.988;2023-05-10T16:09:45;147.97;;;140.37;;
16387;SDS011;8303;53.446;9.988;2023-05-10T16:12:13;123.97;;;117.30;;
16387;SDS011;8303;53.446;9.988;2023-05-10T16:14:40;128.37;;;121.70;;
16387;SDS011;8303;53.446;9.988;2023-05-10T16:17:07;118.73;;;112.47;;
16387;SDS011;8303;53.446;9.988;2023-05-10T16:19:34;135.00;;;127.87;;
16387;SDS011;8303;53.446;9.988;2023-05-10T16:22:00;112.80;;;106.83;;
16387;SDS011;8303;53.446;9.988;2023-05-10T16:24:27;111.83;;;105.87;;
16387;SDS011;8303;53.446;9.988;2023-05-10T16:26:56;95.57;;;90.30;;
16387;SDS011;8303;53.446;9.988;2023-05-10T16:29:23;100.70;;;95.07;;
16387;SDS011;8303;53.446;9.988;2023-05-10T16:31:50;103.70;;;98.10;;
16387;SDS011;8303;53.446;9.988;2023-05-10T16:34:17;101.67;;;96.17;;
16387;SDS011;8303;53.446;9.988;2023-05-10T16:36:48;106.03;;;100.30;;
16387;SDS011;8303;53.446;9.988;2023-05-10T16:39:15;95.97;;;90.63;;
16387;SDS011;8303;53.446;9.988;2023-05-10T16:41:42;86.83;;;81.83;;
16387;SDS011;8303;53.446;9.988;2023-05-10T16:44:10;81.20;;;76.60;;
16387;SDS011;8303;53.446;9.988;2023-05-10T16:46:37;95.33;;;90.07;;
16387;SDS011;8303;53.446;9.988;2023-05-10T16:49:05;89.80;;;84.50;;
16387;SDS011;8303;53.446;9.988;2023-05-10T16:51:32;90.17;;;85.27;;
16387;SDS011;8303;53.446;9.988;2023-05-10T16:53:59;101.60;;;96.07;;
16387;SDS011;8303;53.446;9.988;2023-05-10T16:56:26;92.07;;;87.03;;
16387;SDS011;8303;53.446;9.988;2023-05-10T16:58:53;97.70;;;92.30;;
16387;SDS011;8303;53.446;9.988;2023-05-10T17:01:21;79.80;;;75.20;;
16387;SDS011;8303;53.446;9.988;2023-05-10T17:03:48;93.13;;;88.03;;
16387;SDS011;8303;53.446;9.988;2023-05-10T17:06:15;94.13;;;88.73;;
16387;SDS011;8303;53.446;9.988;2023-05-10T17:08:42;92.10;;;86.80;;
16387;SDS011;8303;53.446;9.988;2023-05-10T17:11:09;114.15;;;108.18;;
16387;SDS011;8303;53.446;9.988;2023-05-10T17:13:36;101.38;;;95.97;;
16387;SDS011;8303;53.446;9.988;2023-05-10T17:16:04;106.03;;;100.50;;
16387;SDS011;8303;53.446;9.988;2023-05-10T17:18:33;104.88;;;99.32;;
16387;SDS011;8303;53.446;9.988;2023-05-10T17:21:00;93.83;;;88.83;;
16387;SDS011;8303;53.446;9.988;2023-05-10T17:23:27;95.95;;;90.85;;
16387;SDS011;8303;53.446;9.988;2023-05-10T17:25:54;95.40;;;90.25;;
16387;SDS011;8303;53.446;9.988;2023-05-10T17:28:21;98.80;;;93.68;;
16387;SDS011;8303;53.446;9.988;2023-05-10T17:30:53;91.72;;;86.80;;
16387;SDS011;8303;53.446;9.988;2023-05-10T17:33:21;79.63;;;74.93;;
16387;SDS011;8303;53.446;9.988;2023-05-10T17:35:50;77.27;;;73.03;;
16387;SDS011;8303;53.446;9.988;2023-05-10T17:38:17;84.43;;;79.90;;
16387;SDS011;8303;53.446;9.988;2023-05-10T17:40:44;93.90;;;88.90;;
16387;SDS011;8303;53.446;9.988;2023-05-10T17:43:11;88.63;;;83.87;;
16387;SDS011;8303;53.446;9.988;2023-05-10T17:45:38;94.67;;;89.70;;
16387;SDS011;8303;53.446;9.988;2023-05-10T17:48:05;120.27;;;114.07;;
16387;SDS011;8303;53.446;9.988;2023-05-10T17:50:32;101.50;;;96.10;;
16387;SDS011;8303;53.446;9.988;2023-05-10T17:53:00;116.57;;;110.70;;
16387;SDS011;8303;53.446;9.988;2023-05-10T17:55:28;119.90;;;113.80;;
16387;SDS011;8303;53.446;9.988;2023-05-10T17:57:55;111.43;;;105.73;;
16387;SDS011;8303;53.446;9.988;2023-05-10T18:00:23;110.10;;;104.43;;
16387;SDS011;8303;53.446;9.988;2023-05-10T18:02:50;108.77;;;103.17;;
16387;SDS011;8303;53.446;9.988;2023-05-10T18:05:17;112.33;;;106.33;;
16387;SDS011;8303;53.446;9.988;2023-05-10T18:07:45;112.90;;;107.17;;
16387;SDS011;8303;53.446;9.988;2023-05-10T18:10:13;112.27;;;106.57;;
16387;SDS011;8303;53.446;9.988;2023-05-10T18:12:40;117.80;;;111.73;;
16387;SDS011;8303;53.446;9.988;2023-05-10T18:15:07;105.57;;;100.17;;
16387;SDS011;8303;53.446;9.988;2023-05-10T18:17:35;84.00;;;79.57;;
16387;SDS011;8303;53.446;9.988;2023-05-10T18:20:02;86.70;;;82.20;;
16387;SDS011;8303;53.446;9.988;2023-05-10T18:22:30;85.57;;;81.07;;
16387;SDS011;8303;53.446;9.988;2023-05-10T18:24:57;91.53;;;86.73;;
16387;SDS011;8303;53.446;9.988;2023-05-10T18:27:25;92.53;;;87.73;;
16387;SDS011;8303;53.446;9.988;2023-05-10T18:29:52;81.13;;;76.47;;
16387;SDS011;8303;53.446;9.988;2023-05-10T18:32:19;74.77;;;70.60;;
16387;SDS011;8303;53.446;9.988;2023-05-10T18:34:46;93.93;;;89.00;;
16387;SDS011;8303;53.446;9.988;2023-05-10T18:37:13;88.20;;;83.23;;
16387;SDS011;8303;53.446;9.988;2023-05-10T18:39:41;80.57;;;76.23;;
16387;SDS011;8303;53.446;9.988;2023-05-10T18:42:07;89.07;;;84.37;;
16387;SDS011;8303;53.446;9.988;2023-05-10T18:44:36;77.97;;;73.57;;
16387;SDS011;8303;53.446;9.988;2023-05-10T18:47:03;74.77;;;70.70;;
16387;SDS011;8303;53.446;9.988;2023-05-10T18:49:30;87.10;;;82.50;;
16387;SDS011;8303;53.446;9.988;2023-05-10T18:51:57;87.40;;;82.90;;
16387;SDS011;8303;53.446;9.988;2023-05-10T18:54:24;83.00;;;78.63;;
16387;SDS011;8303;53.446;9.988;2023-05-10T18:56:51;84.20;;;79.80;;
16387;SDS011;8303;53.446;9.988;2023-05-10T18:59:18;82.17;;;77.80;;
16387;SDS011;8303;53.446;9.988;2023-05-10T19:01:46;80.47;;;76.23;;
16387;SDS011;8303;53.446;9.988;2023-05-10T19:04:13;77.93;;;73.87;;
16387;SDS011;8303;53.446;9.988;2023-05-10T19:06:40;92.93;;;88.00;;
16387;SDS011;8303;53.446;9.988;2023-05-10T19:09:07;74.10;;;70.17;;
16387;SDS011;8303;53.446;9.988;2023-05-10T19:11:34;76.40;;;72.37;;